sensor_id;sensor_type;location;lat;lon;timestamp;temperature;humidity
18091;DHT22;9172;49.948;9.208;2023-01-19T00:01:07;-0.20;99.90
18091;DHT22;9172;49.948;9.208;2023-01-19T00:03:35;-0.20;99.90
18091;DHT22;9172;49.948;9.208;2023-01-19T00:06:06;-0.20;99.90
18091;DHT22;9172;49.948;9.208;2023-01-19T00:08:36;-0.20;99.90
18091;DHT22;9172;49.948;9.208;2023-01-19T00:11:05;-0.20;99.90
18091;DHT22;9172;49.948;9.208;2023-01-19T00:13:35;-0.20;99.90
18091;DHT22;9172;49.948;9.208;2023-01-19T00:16:05;-0.20;99.90
18091;DHT22;9172;49.948;9.208;2023-01-19T00:18:34;-0.20;99.90
18091;DHT22;9172;49.948;9.208;2023-01-19T00:21:03;-0.20;99.90
18091;DHT22;9172;49.948;9.208;2023-01-19T00:23:32;-0.20;99.90
18091;DHT22;9172;49.948;9.208;2023-01-19T00:26:02;-0.20;99.90
18091;DHT22;9172;49.948;9.208;2023-01-19T00:28:30;-0.20;99.90
18091;DHT22;9172;49.948;9.208;2023-01-19T00:31:00;-0.20;99.90
18091;DHT22;9172;49.948;9.208;2023-01-19T00:33:29;-0.20;99.90
18091;DHT22;9172;49.948;9.208;2023-01-19T00:35:58;-0.20;99.90
18091;DHT22;9172;49.948;9.208;2023-01-19T00:38:27;-0.20;99.90
18091;DHT22;9172;49.948;9.208;2023-01-19T00:40:57;-0.20;99.90
18091;DHT22;9172;49.948;9.208;2023-01-19T00:43:27;-0.20;99.90
18091;DHT22;9172;49.948;9.208;2023-01-19T00:45:56;-0.20;99.90
18091;DHT22;9172;49.948;9.208;2023-01-19T00:48:25;-0.20;99.90
18091;DHT22;9172;49.948;9.208;2023-01-19T00:50:55;-0.20;99.90
18091;DHT22;9172;49.948;9.208;2023-01-19T00:53:23;-0.20;99.90
18091;DHT22;9172;49.948;9.208;2023-01-19T00:55:52;-0.20;99.90
18091;DHT22;9172;49.948;9.208;2023-01-19T00:58:22;-0.30;99.90
18091;DHT22;9172;49.948;9.208;2023-01-19T01:00:52;-0.30;99.90
18091;DHT22;9172;49.948;9.208;2023-01-19T01:03:23;-0.30;99.90
18091;DHT22;9172;49.948;9.208;2023-01-19T01:05:55;-0.30;99.90
18091;DHT22;9172;49.948;9.208;2023-01-19T01:08:23;-0.30;99.90
18091;DHT22;9172;49.948;9.208;2023-01-19T01:10:52;-0.30;99.90
18091;DHT22;9172;49.948;9.208;2023-01-19T01:13:21;-0.30;99.90
18091;DHT22;9172;49.948;9.208;2023-01-19T01:15:51;-0.30;99.90
18091;DHT22;9172;49.948;9.208;2023-01-19T01:18:20;-0.20;99.90
18091;DHT22;9172;49.948;9.208;2023-01-19T01:20:50;-0.20;99.90
18091;DHT22;9172;49.948;9.208;2023-01-19T01:23:18;-0.30;99.90
18091;DHT22;9172;49.948;9.208;2023-01-19T01:25:49;-0.20;99.90
18091;DHT22;9172;49.948;9.208;2023-01-19T01:28:17;-0.20;99.90
18091;DHT22;9172;49.948;9.208;2023-01-19T01:30:46;-0.30;99.90
18091;DHT22;9172;49.948;9.208;2023-01-19T01:33:14;-0.20;99.90
18091;DHT22;9172;49.948;9.208;2023-01-19T01:35:43;-0.20;99.90
18091;DHT22;9172;49.948;9.208;2023-01-19T01:38:11;-0.10;99.90
18091;DHT22;9172;49.948;9.208;2023-01-19T01:40:40;-0.10;99.90
18091;DHT22;9172;49.948;9.208;2023-01-19T01:43:11;-0.10;99.90
18091;DHT22;9172;49.948;9.208;2023-01-19T01:45:41;0.00;99.90
18091;DHT22;9172;49.948;9.208;2023-01-19T01:48:12;0.00;99.90
18091;DHT22;9172;49.948;9.208;2023-01-19T01:50:44;0.00;99.90
18091;DHT22;9172;49.948;9.208;2023-01-19T01:53:34;-0.10;99.90
18091;DHT22;9172;49.948;9.208;2023-01-19T01:56:07;-0.10;99.90
18091;DHT22;9172;49.948;9.208;2023-01-19T01:58:37;0.00;99.90
18091;DHT22;9172;49.948;9.208;2023-01-19T02:01:07;0.00;99.90
18091;DHT22;9172;49.948;9.208;2023-01-19T02:03:55;0.00;99.90
18091;DHT22;9172;49.948;9.208;2023-01-19T02:06:25;0.00;99.90
18091;DHT22;9172;49.948;9.208;2023-01-19T02:08:56;0.00;99.90
18091;DHT22;9172;49.948;9.208;2023-01-19T02:11:44;0.00;99.90
18091;DHT22;9172;49.948;9.208;2023-01-19T02:14:31;-0.10;99.90
18091;DHT22;9172;49.948;9.208;2023-01-19T02:16:59;-0.10;99.90
18091;DHT22;9172;49.948;9.208;2023-01-19T02:19:32;-0.10;99.90
18091;DHT22;9172;49.948;9.208;2023-01-19T02:22:03;-0.10;99.90
18091;DHT22;9172;49.948;9.208;2023-01-19T02:24:32;-0.10;99.90
18091;DHT22;9172;49.948;9.208;2023-01-19T02:27:01;-0.10;99.90
18091;DHT22;9172;49.948;9.208;2023-01-19T02:29:31;-0.10;99.90
18091;DHT22;9172;49.948;9.208;2023-01-19T02:32:02;-0.10;99.90
18091;DHT22;9172;49.948;9.208;2023-01-19T02:34:32;-0.10;99.90
18091;DHT22;9172;49.948;9.208;2023-01-19T02:37:05;-0.20;99.90
18091;DHT22;9172;49.948;9.208;2023-01-19T02:39:35;-0.10;99.90
18091;DHT22;9172;49.948;9.208;2023-01-19T02:42:07;-0.10;99.90
18091;DHT22;9172;49.948;9.208;2023-01-19T02:44:38;-0.10;99.90
18091;DHT22;9172;49.948;9.208;2023-01-19T02:47:09;-0.20;99.90
18091;DHT22;9172;49.948;9.208;2023-01-19T02:49:39;-0.10;99.90
18091;DHT22;9172;49.948;9.208;2023-01-19T02:52:11;-0.20;99.90
18091;DHT22;9172;49.948;9.208;2023-01-19T02:54:51;-0.20;99.90
18091;DHT22;9172;49.948;9.208;2023-01-19T02:57:38;-0.20;99.90
18091;DHT22;9172;49.948;9.208;2023-01-19T03:00:18;-0.20;99.90
18091;DHT22;9172;49.948;9.208;2023-01-19T03:02:55;-0.20;99.90
18091;DHT22;9172;49.948;9.208;2023-01-19T03:05:32;-0.20;99.90
18091;DHT22;9172;49.948;9.208;2023-01-19T03:08:07;-0.20;99.90
18091;DHT22;9172;49.948;9.208;2023-01-19T03:10:41;-0.20;99.90
18091;DHT22;9172;49.948;9.208;2023-01-19T03:13:13;-0.10;99.90
18091;DHT22;9172;49.948;9.208;2023-01-19T03:15:46;-0.10;99.90
18091;DHT22;9172;49.948;9.208;2023-01-19T03:18:18;-0.10;99.90
18091;DHT22;9172;49.948;9.208;2023-01-19T03:20:50;-0.10;99.90
18091;DHT22;9172;49.948;9.208;2023-01-19T03:23:21;0.00;99.90
18091;DHT22;9172;49.948;9.208;2023-01-19T03:25:53;0.00;99.90
18091;DHT22;9172;49.948;9.208;2023-01-19T03:28:24;0.00;99.90
18091;DHT22;9172;49.948;9.208;2023-01-19T03:30:57;0.00;99.90
18091;DHT22;9172;49.948;9.208;2023-01-19T03:33:28;0.00;99.90
18091;DHT22;9172;49.948;9.208;2023-01-19T03:36:00;0.10;99.90
18091;DHT22;9172;49.948;9.208;2023-01-19T03:38:32;0.10;99.90
18091;DHT22;9172;49.948;9.208;2023-01-19T03:41:05;0.10;99.90
18091;DHT22;9172;49.948;9.208;2023-01-19T03:43:35;0.10;99.90
18091;DHT22;9172;49.948;9.208;2023-01-19T03:46:06;0.20;99.90
18091;DHT22;9172;49.948;9.208;2023-01-19T03:48:36;0.10;99.90
18091;DHT22;9172;49.948;9.208;2023-01-19T03:51:06;0.10;99.90
18091;DHT22;9172;49.948;9.208;2023-01-19T03:53:35;0.20;99.90
18091;DHT22;9172;49.948;9.208;2023-01-19T03:56:05;0.20;99.90
18091;DHT22;9172;49.948;9.208;2023-01-19T03:58:35;0.20;99.90
18091;DHT22;9172;49.948;9.208;2023-01-19T04:01:04;0.10;99.90
18091;DHT22;9172;49.948;9.208;2023-01-19T04:03:33;0.20;99.90
18091;DHT22;9172;49.948;9.208;2023-01-19T04:06:02;0.10;99.90
18091;DHT22;9172;49.948;9.208;2023-01-19T04:08:30;0.20;99.90
18091;DHT22;9172;49.948;9.208;2023-01-19T04:10:59;0.20;99.90
18091;DHT22;9172;49.948;9.208;2023-01-19T04:13:28;0.20;99.90
18091;DHT22;9172;49.948;9.208;2023-01-19T04:15:59;0.20;99.90
18091;DHT22;9172;49.948;9.208;2023-01-19T04:18:29;0.20;99.90
18091;DHT22;9172;49.948;9.208;2023-01-19T04:21:00;0.20;99.90
18091;DHT22;9172;49.948;9.208;2023-01-19T04:23:29;0.20;99.90
18091;DHT22;9172;49.948;9.208;2023-01-19T04:25:58;0.20;99.90
18091;DHT22;9172;49.948;9.208;2023-01-19T04:28:27;0.20;99.90
18091;DHT22;9172;49.948;9.208;2023-01-19T04:30:56;0.20;99.90
18091;DHT22;9172;49.948;9.208;2023-01-19T04:33:25;0.20;99.90
18091;DHT22;9172;49.948;9.208;2023-01-19T04:35:54;0.20;99.90
18091;DHT22;9172;49.948;9.208;2023-01-19T04:38:23;0.20;99.90
18091;DHT22;9172;49.948;9.208;2023-01-19T04:40:53;0.20;99.90
18091;DHT22;9172;49.948;9.208;2023-01-19T04:43:22;0.30;99.90
18091;DHT22;9172;49.948;9.208;2023-01-19T04:45:51;0.30;99.90
18091;DHT22;9172;49.948;9.208;2023-01-19T04:48:20;0.30;99.90
18091;DHT22;9172;49.948;9.208;2023-01-19T04:50:50;0.30;99.90
18091;DHT22;9172;49.948;9.208;2023-01-19T04:53:19;0.30;99.90
18091;DHT22;9172;49.948;9.208;2023-01-19T04:55:50;0.20;99.90
18091;DHT22;9172;49.948;9.208;2023-01-19T04:58:18;0.20;99.90
18091;DHT22;9172;49.948;9.208;2023-01-19T05:00:46;0.20;99.90
18091;DHT22;9172;49.948;9.208;2023-01-19T05:03:17;0.20;99.90
18091;DHT22;9172;49.948;9.208;2023-01-19T05:05:46;0.20;99.90
18091;DHT22;9172;49.948;9.208;2023-01-19T05:08:14;0.30;99.90
18091;DHT22;9172;49.948;9.208;2023-01-19T05:10:43;0.30;99.90
18091;DHT22;9172;49.948;9.208;2023-01-19T05:13:11;0.30;99.90
18091;DHT22;9172;49.948;9.208;2023-01-19T05:15:40;0.30;99.90
18091;DHT22;9172;49.948;9.208;2023-01-19T05:18:10;0.30;99.90
18091;DHT22;9172;49.948;9.208;2023-01-19T05:20:39;0.30;99.90
18091;DHT22;9172;49.948;9.208;2023-01-19T05:23:08;0.40;99.90
18091;DHT22;9172;49.948;9.208;2023-01-19T05:25:38;0.40;99.90
18091;DHT22;9172;49.948;9.208;2023-01-19T05:28:07;0.40;99.90
18091;DHT22;9172;49.948;9.208;2023-01-19T05:30:36;0.40;99.90
18091;DHT22;9172;49.948;9.208;2023-01-19T05:33:05;0.40;99.90
18091;DHT22;9172;49.948;9.208;2023-01-19T05:35:34;0.40;99.90
18091;DHT22;9172;49.948;9.208;2023-01-19T05:38:04;0.40;99.90
18091;DHT22;9172;49.948;9.208;2023-01-19T05:40:32;0.40;99.90
18091;DHT22;9172;49.948;9.208;2023-01-19T05:43:03;0.30;99.90
18091;DHT22;9172;49.948;9.208;2023-01-19T05:45:32;0.40;99.90
18091;DHT22;9172;49.948;9.208;2023-01-19T05:48:01;0.40;99.90
18091;DHT22;9172;49.948;9.208;2023-01-19T05:50:30;0.40;99.90
18091;DHT22;9172;49.948;9.208;2023-01-19T05:52:58;0.40;99.90
18091;DHT22;9172;49.948;9.208;2023-01-19T05:55:27;0.40;99.90
18091;DHT22;9172;49.948;9.208;2023-01-19T05:57:56;0.40;99.90
18091;DHT22;9172;49.948;9.208;2023-01-19T06:00:25;0.30;99.90
18091;DHT22;9172;49.948;9.208;2023-01-19T06:02:55;0.40;99.90
18091;DHT22;9172;49.948;9.208;2023-01-19T06:05:24;0.30;99.90
18091;DHT22;9172;49.948;9.208;2023-01-19T06:07:54;0.40;99.90
18091;DHT22;9172;49.948;9.208;2023-01-19T06:10:23;0.40;99.90
18091;DHT22;9172;49.948;9.208;2023-01-19T06:12:51;0.40;99.90
18091;DHT22;9172;49.948;9.208;2023-01-19T06:15:20;0.40;99.90
18091;DHT22;9172;49.948;9.208;2023-01-19T06:17:49;0.40;99.90
18091;DHT22;9172;49.948;9.208;2023-01-19T06:20:18;0.40;99.90
18091;DHT22;9172;49.948;9.208;2023-01-19T06:22:47;0.50;99.90
18091;DHT22;9172;49.948;9.208;2023-01-19T06:25:15;0.40;99.90
18091;DHT22;9172;49.948;9.208;2023-01-19T06:27:44;0.50;99.90
18091;DHT22;9172;49.948;9.208;2023-01-19T06:30:14;0.50;99.90
18091;DHT22;9172;49.948;9.208;2023-01-19T06:32:43;0.50;99.90
18091;DHT22;9172;49.948;9.208;2023-01-19T06:35:12;0.50;99.90
18091;DHT22;9172;49.948;9.208;2023-01-19T06:37:40;0.60;99.90
18091;DHT22;9172;49.948;9.208;2023-01-19T06:40:11;0.60;99.90
18091;DHT22;9172;49.948;9.208;2023-01-19T06:42:41;0.60;99.90
18091;DHT22;9172;49.948;9.208;2023-01-19T06:45:10;0.60;99.90
18091;DHT22;9172;49.948;9.208;2023-01-19T06:47:40;0.60;99.90
18091;DHT22;9172;49.948;9.208;2023-01-19T06:50:10;0.60;99.90
18091;DHT22;9172;49.948;9.208;2023-01-19T06:52:39;0.60;99.90
18091;DHT22;9172;49.948;9.208;2023-01-19T06:55:09;0.60;99.90
18091;DHT22;9172;49.948;9.208;2023-01-19T06:57:41;0.60;99.90
18091;DHT22;9172;49.948;9.208;2023-01-19T07:00:12;0.60;99.90
18091;DHT22;9172;49.948;9.208;2023-01-19T07:02:42;0.60;99.90
18091;DHT22;9172;49.948;9.208;2023-01-19T07:05:11;0.60;99.90
18091;DHT22;9172;49.948;9.208;2023-01-19T07:07:41;0.60;99.90
18091;DHT22;9172;49.948;9.208;2023-01-19T07:10:13;0.60;99.90
18091;DHT22;9172;49.948;9.208;2023-01-19T07:12:43;0.60;99.90
18091;DHT22;9172;49.948;9.208;2023-01-19T07:15:14;0.60;99.90
18091;DHT22;9172;49.948;9.208;2023-01-19T07:17:43;0.70;99.90
18091;DHT22;9172;49.948;9.208;2023-01-19T07:20:13;0.70;99.90
18091;DHT22;9172;49.948;9.208;2023-01-19T07:22:42;0.70;99.90
18091;DHT22;9172;49.948;9.208;2023-01-19T07:25:12;0.70;99.90
18091;DHT22;9172;49.948;9.208;2023-01-19T07:27:41;0.70;99.90
18091;DHT22;9172;49.948;9.208;2023-01-19T07:30:12;0.70;99.90
18091;DHT22;9172;49.948;9.208;2023-01-19T07:32:42;0.80;99.90
18091;DHT22;9172;49.948;9.208;2023-01-19T07:35:11;0.80;99.90
18091;DHT22;9172;49.948;9.208;2023-01-19T07:37:40;0.80;99.90
18091;DHT22;9172;49.948;9.208;2023-01-19T07:40:11;0.80;99.90
18091;DHT22;9172;49.948;9.208;2023-01-19T07:42:44;0.70;99.90
18091;DHT22;9172;49.948;9.208;2023-01-19T07:45:15;0.70;99.90
18091;DHT22;9172;49.948;9.208;2023-01-19T07:47:44;0.70;99.90
18091;DHT22;9172;49.948;9.208;2023-01-19T07:50:16;0.80;99.90
18091;DHT22;9172;49.948;9.208;2023-01-19T07:52:47;0.80;99.90
18091;DHT22;9172;49.948;9.208;2023-01-19T07:55:18;0.80;99.90
18091;DHT22;9172;49.948;9.208;2023-01-19T07:57:48;0.70;99.90
18091;DHT22;9172;49.948;9.208;2023-01-19T08:00:19;0.80;99.90
18091;DHT22;9172;49.948;9.208;2023-01-19T08:02:51;0.80;99.90
18091;DHT22;9172;49.948;9.208;2023-01-19T08:05:21;0.80;99.90
18091;DHT22;9172;49.948;9.208;2023-01-19T08:07:50;0.80;99.90
18091;DHT22;9172;49.948;9.208;2023-01-19T08:10:19;0.80;99.90
18091;DHT22;9172;49.948;9.208;2023-01-19T08:12:50;0.80;99.90
18091;DHT22;9172;49.948;9.208;2023-01-19T08:15:19;0.80;99.90
18091;DHT22;9172;49.948;9.208;2023-01-19T08:17:55;0.90;99.90
18091;DHT22;9172;49.948;9.208;2023-01-19T08:20:24;0.80;99.90
18091;DHT22;9172;49.948;9.208;2023-01-19T08:22:54;0.90;99.90
18091;DHT22;9172;49.948;9.208;2023-01-19T08:25:26;0.90;99.90
18091;DHT22;9172;49.948;9.208;2023-01-19T08:27:55;0.90;99.90
18091;DHT22;9172;49.948;9.208;2023-01-19T08:30:23;0.90;99.90
18091;DHT22;9172;49.948;9.208;2023-01-19T08:32:53;0.90;99.90
18091;DHT22;9172;49.948;9.208;2023-01-19T08:35:24;0.90;99.90
18091;DHT22;9172;49.948;9.208;2023-01-19T08:37:54;0.90;99.90
18091;DHT22;9172;49.948;9.208;2023-01-19T08:40:23;0.90;99.90
18091;DHT22;9172;49.948;9.208;2023-01-19T08:42:53;0.90;99.90
18091;DHT22;9172;49.948;9.208;2023-01-19T08:45:25;0.90;99.90
18091;DHT22;9172;49.948;9.208;2023-01-19T08:47:56;0.90;99.90
18091;DHT22;9172;49.948;9.208;2023-01-19T08:50:25;0.90;99.90
18091;DHT22;9172;49.948;9.208;2023-01-19T08:52:56;0.90;99.90
18091;DHT22;9172;49.948;9.208;2023-01-19T08:55:26;1.00;99.90
18091;DHT22;9172;49.948;9.208;2023-01-19T08:57:56;1.00;99.90
18091;DHT22;9172;49.948;9.208;2023-01-19T09:00:28;1.00;99.90
18091;DHT22;9172;49.948;9.208;2023-01-19T09:02:57;1.00;99.90
18091;DHT22;9172;49.948;9.208;2023-01-19T09:05:28;1.00;99.90
18091;DHT22;9172;49.948;9.208;2023-01-19T09:07:58;1.10;99.90
18091;DHT22;9172;49.948;9.208;2023-01-19T09:10:27;1.10;99.90
18091;DHT22;9172;49.948;9.208;2023-01-19T09:12:57;1.10;99.90
18091;DHT22;9172;49.948;9.208;2023-01-19T09:15:27;1.20;99.90
18091;DHT22;9172;49.948;9.208;2023-01-19T09:17:56;1.30;99.90
18091;DHT22;9172;49.948;9.208;2023-01-19T09:20:25;1.40;99.90
18091;DHT22;9172;49.948;9.208;2023-01-19T09:22:56;1.50;99.90
18091;DHT22;9172;49.948;9.208;2023-01-19T09:25:25;1.50;99.90
18091;DHT22;9172;49.948;9.208;2023-01-19T09:27:53;1.60;99.90
18091;DHT22;9172;49.948;9.208;2023-01-19T09:30:22;1.60;99.90
18091;DHT22;9172;49.948;9.208;2023-01-19T09:32:52;1.60;99.90
18091;DHT22;9172;49.948;9.208;2023-01-19T09:35:22;1.70;99.90
18091;DHT22;9172;49.948;9.208;2023-01-19T09:37:51;1.80;99.90
18091;DHT22;9172;49.948;9.208;2023-01-19T09:40:20;1.90;99.90
18091;DHT22;9172;49.948;9.208;2023-01-19T09:42:52;2.00;99.90
18091;DHT22;9172;49.948;9.208;2023-01-19T09:45:28;2.10;99.90
18091;DHT22;9172;49.948;9.208;2023-01-19T09:47:57;2.20;99.90
18091;DHT22;9172;49.948;9.208;2023-01-19T09:50:30;2.10;99.90
18091;DHT22;9172;49.948;9.208;2023-01-19T09:53:01;2.20;99.90
18091;DHT22;9172;49.948;9.208;2023-01-19T09:55:31;2.30;99.90
18091;DHT22;9172;49.948;9.208;2023-01-19T09:58:00;2.30;99.90
18091;DHT22;9172;49.948;9.208;2023-01-19T10:00:30;2.40;99.90
18091;DHT22;9172;49.948;9.208;2023-01-19T10:03:02;2.40;99.90
18091;DHT22;9172;49.948;9.208;2023-01-19T10:05:33;2.50;99.90
18091;DHT22;9172;49.948;9.208;2023-01-19T10:08:11;2.50;99.90
18091;DHT22;9172;49.948;9.208;2023-01-19T10:10:41;2.50;99.90
18091;DHT22;9172;49.948;9.208;2023-01-19T10:13:21;2.50;99.90
18091;DHT22;9172;49.948;9.208;2023-01-19T10:15:57;2.60;99.90
18091;DHT22;9172;49.948;9.208;2023-01-19T10:18:28;2.60;99.90
18091;DHT22;9172;49.948;9.208;2023-01-19T10:21:03;2.70;99.90
18091;DHT22;9172;49.948;9.208;2023-01-19T10:23:42;2.70;99.90
18091;DHT22;9172;49.948;9.208;2023-01-19T10:26:15;2.80;99.90
18091;DHT22;9172;49.948;9.208;2023-01-19T10:28:46;2.80;99.90
18091;DHT22;9172;49.948;9.208;2023-01-19T10:31:17;2.90;99.90
18091;DHT22;9172;49.948;9.208;2023-01-19T10:33:48;2.90;99.90
18091;DHT22;9172;49.948;9.208;2023-01-19T10:36:19;2.90;99.90
18091;DHT22;9172;49.948;9.208;2023-01-19T10:38:48;2.90;99.90
18091;DHT22;9172;49.948;9.208;2023-01-19T10:41:20;2.80;99.90
18091;DHT22;9172;49.948;9.208;2023-01-19T10:43:58;2.90;99.90
18091;DHT22;9172;49.948;9.208;2023-01-19T10:46:32;2.80;99.90
18091;DHT22;9172;49.948;9.208;2023-01-19T10:49:02;2.80;99.90
18091;DHT22;9172;49.948;9.208;2023-01-19T10:51:32;2.80;99.90
18091;DHT22;9172;49.948;9.208;2023-01-19T10:54:03;2.90;99.90
18091;DHT22;9172;49.948;9.208;2023-01-19T10:56:34;2.80;99.90
18091;DHT22;9172;49.948;9.208;2023-01-19T10:59:04;2.80;99.90
18091;DHT22;9172;49.948;9.208;2023-01-19T11:01:33;2.90;99.90
18091;DHT22;9172;49.948;9.208;2023-01-19T11:04:20;2.90;99.90
18091;DHT22;9172;49.948;9.208;2023-01-19T11:06:49;2.90;99.90
18091;DHT22;9172;49.948;9.208;2023-01-19T11:09:20;2.90;99.90
18091;DHT22;9172;49.948;9.208;2023-01-19T11:11:51;2.90;99.90
18091;DHT22;9172;49.948;9.208;2023-01-19T11:14:23;2.90;99.90
18091;DHT22;9172;49.948;9.208;2023-01-19T11:16:54;2.90;99.90
18091;DHT22;9172;49.948;9.208;2023-01-19T11:19:29;2.70;99.90
18091;DHT22;9172;49.948;9.208;2023-01-19T11:22:14;2.70;99.90
18091;DHT22;9172;49.948;9.208;2023-01-19T11:24:46;2.50;99.90
18091;DHT22;9172;49.948;9.208;2023-01-19T11:27:17;2.50;99.90
18091;DHT22;9172;49.948;9.208;2023-01-19T11:29:48;2.50;99.90
18091;DHT22;9172;49.948;9.208;2023-01-19T11:32:21;2.40;99.90
18091;DHT22;9172;49.948;9.208;2023-01-19T11:34:51;2.40;99.90
18091;DHT22;9172;49.948;9.208;2023-01-19T11:37:28;2.30;99.90
18091;DHT22;9172;49.948;9.208;2023-01-19T11:39:59;2.30;99.90
18091;DHT22;9172;49.948;9.208;2023-01-19T11:42:31;2.30;99.90
18091;DHT22;9172;49.948;9.208;2023-01-19T11:45:05;2.30;99.90
18091;DHT22;9172;49.948;9.208;2023-01-19T11:47:40;2.30;99.90
18091;DHT22;9172;49.948;9.208;2023-01-19T11:50:18;2.30;99.90
18091;DHT22;9172;49.948;9.208;2023-01-19T11:52:47;2.30;99.90
18091;DHT22;9172;49.948;9.208;2023-01-19T11:55:20;2.20;99.90
18091;DHT22;9172;49.948;9.208;2023-01-19T11:57:50;2.30;99.90
18091;DHT22;9172;49.948;9.208;2023-01-19T12:00:26;2.20;99.90
18091;DHT22;9172;49.948;9.208;2023-01-19T12:02:59;2.20;99.90
18091;DHT22;9172;49.948;9.208;2023-01-19T12:05:30;2.20;99.90
18091;DHT22;9172;49.948;9.208;2023-01-19T12:08:02;2.20;99.90
18091;DHT22;9172;49.948;9.208;2023-01-19T12:10:35;2.10;99.90
18091;DHT22;9172;49.948;9.208;2023-01-19T12:13:05;2.10;99.90
18091;DHT22;9172;49.948;9.208;2023-01-19T12:15:37;2.10;99.90
18091;DHT22;9172;49.948;9.208;2023-01-19T12:18:11;2.10;99.90
18091;DHT22;9172;49.948;9.208;2023-01-19T12:20:42;2.10;99.90
18091;DHT22;9172;49.948;9.208;2023-01-19T12:23:19;2.10;99.90
18091;DHT22;9172;49.948;9.208;2023-01-19T12:25:56;2.10;99.90
18091;DHT22;9172;49.948;9.208;2023-01-19T12:28:26;2.00;99.90
18091;DHT22;9172;49.948;9.208;2023-01-19T12:30:56;2.00;99.90
18091;DHT22;9172;49.948;9.208;2023-01-19T12:33:36;2.10;99.90
18091;DHT22;9172;49.948;9.208;2023-01-19T12:36:09;2.20;99.90
18091;DHT22;9172;49.948;9.208;2023-01-19T12:38:47;2.20;99.90
18091;DHT22;9172;49.948;9.208;2023-01-19T12:41:27;2.20;99.90
18091;DHT22;9172;49.948;9.208;2023-01-19T12:44:28;2.10;99.90
18091;DHT22;9172;49.948;9.208;2023-01-19T12:46:58;2.00;99.90
18091;DHT22;9172;49.948;9.208;2023-01-19T12:49:31;2.10;99.90
18091;DHT22;9172;49.948;9.208;2023-01-19T12:55:16;2.00;99.90
18091;DHT22;9172;49.948;9.208;2023-01-19T12:57:51;2.10;99.90
18091;DHT22;9172;49.948;9.208;2023-01-19T13:00:35;2.10;99.90
18091;DHT22;9172;49.948;9.208;2023-01-19T13:06:00;2.20;99.90
18091;DHT22;9172;49.948;9.208;2023-01-19T13:11:20;2.20;99.90
18091;DHT22;9172;49.948;9.208;2023-01-19T13:23:18;2.20;99.90
18091;DHT22;9172;49.948;9.208;2023-01-19T13:25:52;2.20;99.90
18091;DHT22;9172;49.948;9.208;2023-01-19T13:28:27;2.20;99.90
18091;DHT22;9172;49.948;9.208;2023-01-19T13:30:58;2.20;99.90
18091;DHT22;9172;49.948;9.208;2023-01-19T13:33:33;2.20;99.90
18091;DHT22;9172;49.948;9.208;2023-01-19T13:36:06;2.20;99.90
18091;DHT22;9172;49.948;9.208;2023-01-19T13:38:36;2.20;99.90
18091;DHT22;9172;49.948;9.208;2023-01-19T13:41:07;2.20;99.90
18091;DHT22;9172;49.948;9.208;2023-01-19T13:43:37;2.20;99.90
18091;DHT22;9172;49.948;9.208;2023-01-19T13:46:08;2.20;99.90
18091;DHT22;9172;49.948;9.208;2023-01-19T13:48:36;2.30;99.90
18091;DHT22;9172;49.948;9.208;2023-01-19T13:51:09;2.30;99.90
18091;DHT22;9172;49.948;9.208;2023-01-19T13:53:37;2.20;99.90
18091;DHT22;9172;49.948;9.208;2023-01-19T13:56:17;2.30;99.90
18091;DHT22;9172;49.948;9.208;2023-01-19T13:59:04;2.20;99.90
18091;DHT22;9172;49.948;9.208;2023-01-19T14:01:35;2.20;99.90
18091;DHT22;9172;49.948;9.208;2023-01-19T14:04:04;2.20;99.90
18091;DHT22;9172;49.948;9.208;2023-01-19T14:06:43;2.20;99.90
18091;DHT22;9172;49.948;9.208;2023-01-19T14:09:15;2.20;99.90
18091;DHT22;9172;49.948;9.208;2023-01-19T14:11:45;2.10;99.90
18091;DHT22;9172;49.948;9.208;2023-01-19T14:14:26;2.10;99.90
18091;DHT22;9172;49.948;9.208;2023-01-19T14:16:55;2.10;99.90
18091;DHT22;9172;49.948;9.208;2023-01-19T14:19:24;2.10;99.90
18091;DHT22;9172;49.948;9.208;2023-01-19T14:22:01;2.00;99.90
18091;DHT22;9172;49.948;9.208;2023-01-19T14:24:30;2.00;99.90
18091;DHT22;9172;49.948;9.208;2023-01-19T14:27:16;2.00;99.90
18091;DHT22;9172;49.948;9.208;2023-01-19T14:32:18;1.90;99.90
18091;DHT22;9172;49.948;9.208;2023-01-19T14:34:48;1.90;99.90
18091;DHT22;9172;49.948;9.208;2023-01-19T14:37:22;1.90;99.90
18091;DHT22;9172;49.948;9.208;2023-01-19T14:39:54;1.90;99.90
18091;DHT22;9172;49.948;9.208;2023-01-19T14:42:26;1.90;99.90
18091;DHT22;9172;49.948;9.208;2023-01-19T14:44:57;1.90;99.90
18091;DHT22;9172;49.948;9.208;2023-01-19T14:47:30;1.90;99.90
18091;DHT22;9172;49.948;9.208;2023-01-19T14:50:04;2.00;99.90
18091;DHT22;9172;49.948;9.208;2023-01-19T14:52:36;2.00;99.90
18091;DHT22;9172;49.948;9.208;2023-01-19T14:55:15;2.00;99.90
18091;DHT22;9172;49.948;9.208;2023-01-19T14:57:45;2.00;99.90
18091;DHT22;9172;49.948;9.208;2023-01-19T15:00:16;1.90;99.90
18091;DHT22;9172;49.948;9.208;2023-01-19T15:02:46;1.90;99.90
18091;DHT22;9172;49.948;9.208;2023-01-19T15:05:14;1.90;99.90
18091;DHT22;9172;49.948;9.208;2023-01-19T15:07:44;1.90;99.90
18091;DHT22;9172;49.948;9.208;2023-01-19T15:10:17;1.90;99.90
18091;DHT22;9172;49.948;9.208;2023-01-19T15:12:48;1.80;99.90
18091;DHT22;9172;49.948;9.208;2023-01-19T15:15:18;1.80;99.90
18091;DHT22;9172;49.948;9.208;2023-01-19T15:17:49;1.80;99.90
18091;DHT22;9172;49.948;9.208;2023-01-19T15:20:19;1.80;99.90
18091;DHT22;9172;49.948;9.208;2023-01-19T15:22:48;1.80;99.90
18091;DHT22;9172;49.948;9.208;2023-01-19T15:25:18;1.80;99.90
18091;DHT22;9172;49.948;9.208;2023-01-19T15:27:48;1.80;99.90
18091;DHT22;9172;49.948;9.208;2023-01-19T15:30:19;1.80;99.90
18091;DHT22;9172;49.948;9.208;2023-01-19T15:32:48;1.90;99.90
18091;DHT22;9172;49.948;9.208;2023-01-19T15:35:18;1.90;99.90
18091;DHT22;9172;49.948;9.208;2023-01-19T15:37:48;1.80;99.90
18091;DHT22;9172;49.948;9.208;2023-01-19T15:40:19;1.80;99.90
18091;DHT22;9172;49.948;9.208;2023-01-19T15:42:50;1.80;99.90
18091;DHT22;9172;49.948;9.208;2023-01-19T15:45:31;1.80;99.90
18091;DHT22;9172;49.948;9.208;2023-01-19T15:48:00;1.80;99.90
18091;DHT22;9172;49.948;9.208;2023-01-19T15:53:12;1.80;99.90
18091;DHT22;9172;49.948;9.208;2023-01-19T15:55:42;1.80;99.90
18091;DHT22;9172;49.948;9.208;2023-01-19T15:58:10;1.80;99.90
18091;DHT22;9172;49.948;9.208;2023-01-19T16:00:40;1.80;99.90
18091;DHT22;9172;49.948;9.208;2023-01-19T16:03:10;1.80;99.90
18091;DHT22;9172;49.948;9.208;2023-01-19T16:05:39;1.80;99.90
18091;DHT22;9172;49.948;9.208;2023-01-19T16:08:08;1.80;99.90
18091;DHT22;9172;49.948;9.208;2023-01-19T16:10:37;1.80;99.90
18091;DHT22;9172;49.948;9.208;2023-01-19T16:13:06;1.80;99.90
18091;DHT22;9172;49.948;9.208;2023-01-19T16:15:35;1.80;99.90
18091;DHT22;9172;49.948;9.208;2023-01-19T16:18:05;1.80;99.90
18091;DHT22;9172;49.948;9.208;2023-01-19T16:20:34;1.80;99.90
18091;DHT22;9172;49.948;9.208;2023-01-19T16:23:02;1.80;99.90
18091;DHT22;9172;49.948;9.208;2023-01-19T16:25:32;1.80;99.90
18091;DHT22;9172;49.948;9.208;2023-01-19T16:28:02;1.80;99.90
18091;DHT22;9172;49.948;9.208;2023-01-19T16:30:32;1.80;99.90
18091;DHT22;9172;49.948;9.208;2023-01-19T16:33:01;1.80;99.90
18091;DHT22;9172;49.948;9.208;2023-01-19T16:35:31;1.70;99.90
18091;DHT22;9172;49.948;9.208;2023-01-19T16:38:00;1.80;99.90
18091;DHT22;9172;49.948;9.208;2023-01-19T16:40:29;1.80;99.90
18091;DHT22;9172;49.948;9.208;2023-01-19T16:42:58;1.80;99.90
18091;DHT22;9172;49.948;9.208;2023-01-19T16:45:27;1.80;99.90
18091;DHT22;9172;49.948;9.208;2023-01-19T16:47:56;1.80;99.90